Time;durP1;ratioP1;P1;durP2;ratioP2;P2;SDS_P1;SDS_P2;PMS_P1;PMS_P2;Temp;Humidity;BMP_temperature;BMP_pressure;BME280_temperature;BME280_humidity;BME280_pressure;Samples;Min_cycle;Max_cycle;Signal;HPM_P1;HPM_P2
2023/06/18 00:01:23;;;;;;;18.05;8.75;;;;;;;21.41;81.06;99990.59;5031063;28;20038;-90
2023/06/18 00:03:48;;;;;;;26.63;8.85;;;;;;;21.41;81.52;99995.19;4992814;28;20426;-86
2023/06/18 00:06:14;;;;;;;14.52;8.98;;;;;;;21.43;81.66;99984.91;4992319;28;20030;-87
2023/06/18 00:08:39;;;;;;;17.75;9.57;;;;;;;21.51;81.66;99995.63;5009683;28;20042;-86
2023/06/18 00:11:05;;;;;;;16.48;10.00;;;;;;;21.58;81.82;100005.53;5011081;28;20121;-88
2023/06/18 00:13:30;;;;;;;20.52;11.02;;;;;;;21.52;81.38;99992.69;5017601;28;20068;-89
2023/06/18 00:15:56;;;;;;;19.63;9.73;;;;;;;21.35;81.82;99982.38;5013472;28;20105;-87
2023/06/18 00:18:21;;;;;;;18.42;10.65;;;;;;;21.55;82.01;99997.75;5014872;28;20169;-87
2023/06/18 00:20:48;;;;;;;15.35;10.25;;;;;;;21.38;82.04;99985.53;5013305;28;20125;-87
2023/06/18 00:23:14;;;;;;;12.98;9.82;;;;;;;21.60;82.10;100017.09;5014696;28;20041;-86
2023/06/18 00:25:39;;;;;;;20.17;9.65;;;;;;;21.50;81.97;100005.72;5015993;28;20041;-85
2023/06/18 00:28:05;;;;;;;22.13;8.68;;;;;;;21.41;81.97;100007.00;5015301;28;20082;-85
2023/06/18 00:30:31;;;;;;;20.88;10.40;;;;;;;21.51;82.38;100014.78;5045098;28;20045;-89
2023/06/18 00:32:58;;;;;;;12.13;8.40;;;;;;;21.44;82.59;100012.03;5040951;28;20028;-90
2023/06/18 00:35:23;;;;;;;16.70;9.15;;;;;;;21.34;82.48;99988.91;5058796;28;20029;-91
2023/06/18 00:37:49;;;;;;;13.95;9.57;;;;;;;21.51;82.25;100007.44;5054495;28;20040;-90
2023/06/18 00:40:15;;;;;;;16.23;9.43;;;;;;;21.50;82.00;100000.25;5051626;28;20022;-85
2023/06/18 00:42:41;;;;;;;14.88;8.88;;;;;;;21.41;82.00;99984.25;5050935;28;20029;-87
2023/06/18 00:45:08;;;;;;;14.25;9.43;;;;;;;21.41;82.28;99996.06;5048180;28;20049;-86
2023/06/18 00:47:37;;;;;;;14.80;10.43;;;;;;;21.33;82.10;99990.78;5035839;28;20044;-86
2023/06/18 00:50:05;;;;;;;22.25;9.85;;;;;;;21.28;82.11;99971.44;5040742;28;20021;-86
2023/06/18 00:52:34;;;;;;;12.88;8.85;;;;;;;21.31;82.05;99992.91;5020975;28;20037;-87
2023/06/18 00:55:01;;;;;;;13.27;9.45;;;;;;;21.30;82.06;99983.00;5053084;28;20104;-92
2023/06/18 00:57:31;;;;;;;16.95;8.32;;;;;;;21.34;81.74;99987.03;5053560;28;20037;-87
2023/06/18 00:59:57;;;;;;;19.77;8.80;;;;;;;21.47;82.23;100019.84;5028481;28;20038;-90
2023/06/18 01:02:25;;;;;;;17.33;8.57;;;;;;;21.52;82.21;100013.75;5035934;28;20026;-87
2023/06/18 01:04:55;;;;;;;15.10;9.07;;;;;;;21.64;81.77;100026.59;5034146;28;20087;-88
2023/06/18 01:07:24;;;;;;;15.10;8.40;;;;;;;21.68;81.59;100026.97;5015835;28;20079;-87
2023/06/18 01:09:53;;;;;;;14.10;9.50;;;;;;;21.58;81.45;100010.16;5015952;28;20059;-86
2023/06/18 01:12:27;;;;;;;21.35;9.25;;;;;;;21.71;81.04;100032.06;5015334;28;20460;-87
2023/06/18 01:14:56;;;;;;;16.50;9.40;;;;;;;21.69;81.12;100021.31;5033360;28;20060;-87
2023/06/18 01:17:23;;;;;;;14.05;9.77;;;;;;;21.73;80.79;100015.41;5032755;28;20104;-88
2023/06/18 01:19:57;;;;;;;16.60;9.60;;;;;;;21.56;80.81;99988.47;5033100;28;20124;-87
2023/06/18 01:22:40;;;;;;;15.70;9.68;;;;;;;21.65;80.85;100002.78;5033513;28;20437;-87
2023/06/18 01:25:07;;;;;;;22.33;10.07;;;;;;;21.53;80.75;99999.00;5034652;28;20029;-88
2023/06/18 01:27:34;;;;;;;22.63;10.15;;;;;;;21.51;81.00;100001.09;5034217;28;20029;-87
2023/06/18 01:30:04;;;;;;;17.83;10.02;;;;;;;21.63;81.09;100022.16;5040188;28;20026;-85
2023/06/18 01:32:30;;;;;;;31.50;9.95;;;;;;;21.60;80.98;100019.84;5028770;28;20029;-86
2023/06/18 01:34:55;;;;;;;17.55;9.65;;;;;;;21.62;81.11;100017.72;5034536;28;20024;-87
2023/06/18 01:37:38;;;;;;;18.70;11.05;;;;;;;21.69;80.84;100021.31;5032988;28;20048;-88
2023/06/18 01:40:04;;;;;;;22.00;10.45;;;;;;;21.78;80.60;100041.09;5015489;28;20026;-87
2023/06/18 01:42:35;;;;;;;22.75;10.52;;;;;;;21.70;81.00;100031.22;5033660;28;20044;-86
2023/06/18 01:45:13;;;;;;;20.83;12.05;;;;;;;21.74;80.74;100028.06;5016868;28;20025;-85
2023/06/18 01:47:42;;;;;;;18.80;10.55;;;;;;;21.70;80.73;100033.13;5035612;28;20030;-86
2023/06/18 01:50:10;;;;;;;26.40;11.73;;;;;;;21.53;81.23;100015.41;5038296;28;20028;-85
2023/06/18 01:52:39;;;;;;;21.77;11.40;;;;;;;21.48;81.31;100007.84;5035521;28;20043;-87
2023/06/18 01:55:05;;;;;;;23.02;11.27;;;;;;;21.64;81.28;100029.34;5052035;28;20033;-86
2023/06/18 01:57:32;;;;;;;22.42;12.52;;;;;;;21.57;81.75;100014.78;5032426;28;20095;-88
2023/06/18 01:59:57;;;;;;;18.73;11.70;;;;;;;21.48;81.90;100013.31;5014611;28;20032;-87
2023/06/18 02:02:23;;;;;;;14.45;10.18;;;;;;;21.57;81.96;100031.22;5014850;28;20033;-87
2023/06/18 02:04:49;;;;;;;19.00;11.73;;;;;;;21.43;82.16;100013.13;5032288;28;20021;-86
2023/06/18 02:07:15;;;;;;;16.88;11.38;;;;;;;21.61;81.96;100040.69;5014765;28;20475;-89
2023/06/18 02:09:40;;;;;;;19.92;11.50;;;;;;;21.49;82.51;100036.91;5014385;28;20033;-88
2023/06/18 02:12:06;;;;;;;15.90;10.35;;;;;;;21.44;82.75;100023.00;5031381;28;20593;-87
2023/06/18 02:14:32;;;;;;;28.42;11.15;;;;;;;21.52;82.49;100036.50;5031902;28;20022;-87
2023/06/18 02:16:59;;;;;;;20.67;11.48;;;;;;;21.61;82.31;100045.31;5014067;28;20099;-88
2023/06/18 02:19:24;;;;;;;19.65;12.07;;;;;;;21.51;82.24;100023.84;5031889;28;20073;-86
2023/06/18 02:21:50;;;;;;;18.58;10.55;;;;;;;21.68;82.06;100055.19;5013960;28;20064;-86
2023/06/18 02:24:16;;;;;;;22.20;10.90;;;;;;;21.73;82.14;100053.75;5031453;28;20089;-86
2023/06/18 02:26:42;;;;;;;18.52;11.27;;;;;;;21.66;81.90;100049.09;5014420;28;20037;-90
2023/06/18 02:29:08;;;;;;;17.50;10.10;;;;;;;21.77;81.66;100057.75;5031692;28;20026;-86
2023/06/18 02:31:34;;;;;;;21.98;11.30;;;;;;;21.80;81.62;100054.59;5013485;28;20099;-86
2023/06/18 02:33:59;;;;;;;20.23;11.80;;;;;;;21.75;81.17;100040.69;5013418;28;20552;-86
2023/06/18 02:36:25;;;;;;;15.90;10.98;;;;;;;21.80;80.97;100038.16;5030729;28;20493;-86
2023/06/18 02:38:52;;;;;;;15.93;10.40;;;;;;;21.75;80.53;100036.03;5032071;28;20046;-85
2023/06/18 02:41:18;;;;;;;18.67;10.82;;;;;;;21.77;81.21;100052.28;5032606;28;20497;-86
2023/06/18 02:43:44;;;;;;;21.00;12.40;;;;;;;21.75;81.34;100040.69;5033165;28;20116;-85
2023/06/18 02:46:09;;;;;;;18.42;10.45;;;;;;;21.86;81.09;100060.06;5032710;28;20104;-86
2023/06/18 02:48:35;;;;;;;19.95;11.65;;;;;;;21.79;81.17;100050.16;5045323;28;20085;-88
2023/06/18 02:51:01;;;;;;;18.40;11.70;;;;;;;21.75;80.74;100038.78;5049854;28;20048;-87
2023/06/18 02:53:26;;;;;;;25.00;11.77;;;;;;;21.71;81.21;100037.53;5038400;28;20025;-86
2023/06/18 02:55:52;;;;;;;19.02;13.15;;;;;;;21.74;81.26;100039.84;5030713;28;20029;-86
2023/06/18 02:58:20;;;;;;;28.95;11.88;;;;;;;21.88;81.00;100054.38;5030917;28;20175;-86
2023/06/18 03:00:45;;;;;;;18.83;11.40;;;;;;;21.83;81.12;100065.13;5031083;28;20033;-86
2023/06/18 03:03:14;;;;;;;21.45;11.80;;;;;;;21.81;81.17;100057.09;5030895;28;20107;-87
2023/06/18 03:05:40;;;;;;;20.85;11.13;;;;;;;21.90;80.68;100049.53;5031050;28;20026;-87
2023/06/18 03:08:06;;;;;;;23.15;11.85;;;;;;;21.90;80.56;100044.06;5030669;28;20114;-86
2023/06/18 03:10:35;;;;;;;17.25;10.88;;;;;;;21.92;80.46;100047.47;5030724;28;20060;-86
2023/06/18 03:13:00;;;;;;;19.80;11.68;;;;;;;22.00;79.90;100048.06;5031301;28;20025;-86
2023/06/18 03:15:25;;;;;;;18.58;10.18;;;;;;;22.10;79.63;100061.34;5030779;28;20021;-87
2023/06/18 03:17:51;;;;;;;18.60;10.02;;;;;;;22.15;79.54;100084.28;5030467;28;20053;-86
2023/06/18 03:20:18;;;;;;;13.95;9.88;;;;;;;22.15;79.36;100072.47;5031206;28;20030;-86
2023/06/18 03:22:43;;;;;;;23.52;11.45;;;;;;;22.09;79.78;100059.63;5031546;28;20029;-87
2023/06/18 03:25:09;;;;;;;29.05;10.82;;;;;;;22.20;79.32;100064.44;5031635;28;20079;-87
2023/06/18 03:27:34;;;;;;;14.73;11.13;;;;;;;22.10;78.93;100051.22;5031164;28;20502;-87
2023/06/18 03:29:59;;;;;;;18.30;10.43;;;;;;;22.12;78.72;100048.25;5030817;28;20029;-86
2023/06/18 03:32:25;;;;;;;13.52;9.88;;;;;;;22.12;78.92;100059.22;5030808;28;20560;-85
2023/06/18 03:34:51;;;;;;;24.48;11.23;;;;;;;22.11;79.06;100057.53;5031014;28;20024;-87
2023/06/18 03:37:17;;;;;;;18.88;9.95;;;;;;;22.12;78.81;100060.06;5031814;28;20048;-85
2023/06/18 03:39:43;;;;;;;22.60;9.38;;;;;;;22.24;78.77;100066.56;5032861;28;20505;-85
2023/06/18 03:42:08;;;;;;;21.15;9.95;;;;;;;22.17;78.73;100046.56;5014752;28;20116;-85
2023/06/18 03:44:34;;;;;;;11.70;9.75;;;;;;;22.22;79.12;100055.00;5038865;28;20033;-89
2023/06/18 03:46:59;;;;;;;20.00;10.57;;;;;;;22.32;78.48;100053.69;5034681;28;20033;-87
2023/06/18 03:49:25;;;;;;;14.45;10.63;;;;;;;22.31;78.26;100039.16;5045734;28;20017;-85
2023/06/18 03:51:50;;;;;;;13.73;9.35;;;;;;;22.33;77.97;100045.25;5035268;28;20041;-85
2023/06/18 03:54:16;;;;;;;19.08;11.10;;;;;;;22.51;77.64;100070.06;5036444;28;20072;-85
2023/06/18 03:56:41;;;;;;;14.30;10.45;;;;;;;22.51;76.91;100066.47;5039129;28;20029;-86
2023/06/18 03:59:07;;;;;;;15.23;9.45;;;;;;;22.37;77.39;100052.00;5053199;28;20039;-86
2023/06/18 04:01:33;;;;;;;14.98;10.45;;;;;;;22.37;77.50;100059.38;5045899;28;20052;-86
2023/06/18 04:03:59;;;;;;;18.73;10.75;;;;;;;22.51;77.90;100070.06;5021436;28;20025;-87
2023/06/18 04:06:24;;;;;;;18.70;10.10;;;;;;;22.35;77.60;100053.28;5035913;28;20025;-85
2023/06/18 04:08:50;;;;;;;18.52;10.75;;;;;;;22.40;77.33;100062.53;5039217;28;20385;-87
2023/06/18 04:11:15;;;;;;;13.38;10.00;;;;;;;22.39;77.88;100074.53;5035240;28;20029;-87
2023/06/18 04:13:41;;;;;;;21.58;10.93;;;;;;;22.30;78.15;100050.31;5035008;28;20032;-86
2023/06/18 04:16:06;;;;;;;17.55;10.05;;;;;;;22.37;78.02;100060.22;5035582;28;20068;-86
2023/06/18 04:18:32;;;;;;;19.98;9.63;;;;;;;22.54;77.53;100068.78;5017872;28;20440;-85
2023/06/18 04:20:57;;;;;;;19.23;9.93;;;;;;;22.49;76.71;100042.06;5040111;28;20116;-85
2023/06/18 04:23:23;;;;;;;14.30;8.82;;;;;;;22.66;76.72;100067.94;5050259;28;20029;-87
2023/06/18 04:25:48;;;;;;;13.23;9.20;;;;;;;22.64;76.66;100058.22;5017809;28;20154;-86
2023/06/18 04:28:14;;;;;;;17.00;10.30;;;;;;;22.78;76.39;100068.94;5034167;28;20025;-86
2023/06/18 04:30:40;;;;;;;18.20;9.75;;;;;;;22.72;76.04;100060.75;5034586;28;20061;-86
2023/06/18 04:33:05;;;;;;;16.55;10.07;;;;;;;22.70;75.97;100057.38;5035251;28;20098;-86
2023/06/18 04:35:31;;;;;;;14.90;9.90;;;;;;;22.75;76.12;100060.34;5035922;28;20112;-87
2023/06/18 04:37:56;;;;;;;20.77;10.68;;;;;;;22.83;75.98;100061.97;5035829;28;20120;-87
2023/06/18 04:40:21;;;;;;;21.77;9.73;;;;;;;22.96;75.67;100078.38;5034433;28;20039;-85
2023/06/18 04:42:47;;;;;;;21.20;11.98;;;;;;;23.02;75.45;100064.63;5018930;28;20052;-88
2023/06/18 04:45:12;;;;;;;22.70;9.85;;;;;;;22.99;75.34;100066.97;5042927;28;20447;-87
2023/06/18 04:47:40;;;;;;;18.42;10.93;;;;;;;23.08;74.73;100054.69;5035161;28;20033;-88
2023/06/18 04:50:06;;;;;;;21.63;10.45;;;;;;;23.15;74.69;100066.44;5034194;28;20025;-83
2023/06/18 04:52:32;;;;;;;20.58;11.88;;;;;;;23.16;74.42;100057.16;5033119;28;20039;-84
2023/06/18 04:54:57;;;;;;;18.63;11.48;;;;;;;23.33;73.55;100080.28;5032489;28;20034;-86
2023/06/18 04:57:23;;;;;;;25.00;11.02;;;;;;;23.40;73.98;100067.38;5013950;28;20030;-83
2023/06/18 04:59:48;;;;;;;15.88;11.73;;;;;;;23.40;73.27;100074.78;5034796;28;20033;-89
2023/06/18 05:02:14;;;;;;;18.15;11.57;;;;;;;23.43;73.20;100072.44;5032841;28;20021;-86
2023/06/18 05:04:40;;;;;;;20.40;12.65;;;;;;;23.59;72.37;100080.13;5015920;28;20029;-84
2023/06/18 05:07:06;;;;;;;27.27;13.88;;;;;;;23.63;72.28;100075.03;5034905;28;20064;-82
2023/06/18 05:09:31;;;;;;;22.75;13.30;;;;;;;23.76;71.61;100089.50;5038878;28;20048;-85
2023/06/18 05:11:57;;;;;;;25.58;13.25;;;;;;;23.75;71.30;100085.09;5039264;28;20029;-82
2023/06/18 05:14:22;;;;;;;20.90;13.68;;;;;;;23.88;71.09;100097.88;5039631;28;20037;-87
2023/06/18 05:16:48;;;;;;;25.05;15.15;;;;;;;23.78;70.80;100067.31;5047532;28;20421;-82
2023/06/18 05:19:13;;;;;;;18.00;14.55;;;;;;;23.91;70.53;100082.84;5034554;28;20172;-83
2023/06/18 05:21:39;;;;;;;17.95;14.43;;;;;;;24.02;70.37;100095.84;5035317;28;20029;-83
2023/06/18 05:24:07;;;;;;;25.08;17.25;;;;;;;23.94;70.07;100087.88;5036779;28;20025;-84
2023/06/18 05:26:33;;;;;;;23.90;15.50;;;;;;;24.02;70.34;100093.94;5038017;28;20124;-84
2023/06/18 05:28:58;;;;;;;28.15;16.58;;;;;;;24.19;70.13;100102.47;5031760;28;20513;-83
2023/06/18 05:31:24;;;;;;;25.23;17.60;;;;;;;24.18;69.27;100101.66;5032798;28;20055;-84
2023/06/18 05:33:49;;;;;;;24.55;15.40;;;;;;;24.26;68.68;100119.75;5032989;28;20049;-83
2023/06/18 05:36:15;;;;;;;21.88;14.50;;;;;;;24.27;68.88;100115.94;5031902;28;20049;-83
2023/06/18 05:38:40;;;;;;;28.48;16.63;;;;;;;24.27;68.70;100114.03;5031488;28;20029;-82
2023/06/18 05:41:05;;;;;;;27.50;15.30;;;;;;;24.31;68.54;100098.75;5014416;28;20037;-87
2023/06/18 05:43:31;;;;;;;24.23;14.95;;;;;;;24.49;67.81;100113.59;5031785;28;20080;-84
2023/06/18 05:45:57;;;;;;;34.53;16.08;;;;;;;24.59;67.61;100125.75;5013306;28;20030;-83
2023/06/18 05:48:23;;;;;;;23.05;14.75;;;;;;;24.52;66.80;100114.00;5031691;28;20061;-83
2023/06/18 05:50:48;;;;;;;21.13;13.68;;;;;;;24.54;66.89;100111.00;5031235;28;20087;-83
2023/06/18 05:53:14;;;;;;;14.30;12.10;;;;;;;24.64;66.65;100112.16;5031422;28;20172;-83
2023/06/18 05:55:39;;;;;;;19.73;13.32;;;;;;;24.76;65.90;100123.25;5031349;28;20104;-87
2023/06/18 05:58:05;;;;;;;23.40;13.02;;;;;;;24.82;65.94;100125.97;5031883;28;20025;-83
2023/06/18 06:00:31;;;;;;;18.42;13.32;;;;;;;24.90;65.77;100133.88;5031182;28;20029;-83
2023/06/18 06:02:56;;;;;;;20.08;12.70;;;;;;;25.01;65.95;100129.53;5033992;28;20055;-81
2023/06/18 06:05:22;;;;;;;25.30;12.32;;;;;;;25.13;65.49;100124.94;5037263;28;20013;-84
2023/06/18 06:07:47;;;;;;;22.23;12.48;;;;;;;25.30;64.81;100128.72;5026103;28;20436;-82
2023/06/18 06:10:18;;;;;;;28.75;12.05;;;;;;;25.37;64.26;100128.63;5042232;28;20033;-83
2023/06/18 06:12:44;;;;;;;16.42;11.60;;;;;;;25.52;63.55;100137.34;5042763;28;20049;-80
2023/06/18 06:15:10;;;;;;;21.85;12.30;;;;;;;25.38;63.39;100114.63;5043435;28;20044;-86
2023/06/18 06:17:39;;;;;;;19.80;12.98;;;;;;;25.53;63.20;100121.66;5041844;28;20061;-79
2023/06/18 06:20:05;;;;;;;16.08;12.32;;;;;;;25.50;62.95;100111.13;5035095;28;20140;-90
2023/06/18 06:22:30;;;;;;;21.75;14.13;;;;;;;25.67;62.92;100123.97;5034946;28;20034;-81
2023/06/18 06:24:57;;;;;;;17.05;11.65;;;;;;;25.86;62.57;100142.13;5042025;28;20083;-89
2023/06/18 06:27:22;;;;;;;16.98;10.93;;;;;;;25.93;62.09;100134.56;5051752;28;20071;-82
2023/06/18 06:29:48;;;;;;;17.83;12.48;;;;;;;26.01;62.13;100140.81;5040995;28;20481;-85
2023/06/18 06:32:13;;;;;;;26.70;12.45;;;;;;;26.13;62.13;100149.97;5037367;28;20052;-84
2023/06/18 06:34:39;;;;;;;26.25;12.55;;;;;;;26.13;61.86;100125.16;5042005;28;20037;-86
2023/06/18 06:37:04;;;;;;;21.85;13.02;;;;;;;26.20;61.58;100128.66;5053776;28;20041;-87
2023/06/18 06:39:30;;;;;;;21.67;11.27;;;;;;;26.24;60.63;100138.97;5042611;28;20520;-91
2023/06/18 06:41:55;;;;;;;22.75;12.27;;;;;;;26.26;60.96;100147.00;5036033;28;20030;-84
2023/06/18 06:44:21;;;;;;;20.88;12.90;;;;;;;26.35;61.19;100146.44;5039266;28;20485;-83
2023/06/18 06:46:46;;;;;;;26.52;13.05;;;;;;;26.29;60.37;100154.81;5037293;28;20413;-81
2023/06/18 06:49:11;;;;;;;20.67;11.90;;;;;;;26.28;60.75;100133.81;5018326;28;20060;-82
2023/06/18 06:51:38;;;;;;;17.95;12.20;;;;;;;26.11;60.62;100113.53;5048432;28;20109;-89
2023/06/18 06:54:05;;;;;;;21.35;12.48;;;;;;;26.31;60.93;100120.41;5037644;28;20086;-83
2023/06/18 06:56:32;;;;;;;19.90;11.00;;;;;;;26.31;60.31;100114.03;5035745;28;20048;-89
2023/06/18 06:58:57;;;;;;;30.83;13.77;;;;;;;26.50;59.76;100148.69;5034389;28;20033;-83
2023/06/18 07:01:23;;;;;;;18.35;10.93;;;;;;;26.42;59.96;100133.34;5020306;28;20071;-86
2023/06/18 07:03:48;;;;;;;24.58;11.15;;;;;;;26.52;59.73;100144.63;5033359;28;20199;-80
2023/06/18 07:06:14;;;;;;;21.30;11.70;;;;;;;26.53;59.60;100131.66;5031467;28;20029;-89
2023/06/18 07:08:49;;;;;;;18.67;11.07;;;;;;;26.73;59.29;100145.91;5015851;28;20442;-90
2023/06/18 07:11:14;;;;;;;16.70;10.18;;;;;;;26.58;58.51;100131.78;5029026;28;20110;-81
2023/06/18 07:13:40;;;;;;;15.15;9.35;;;;;;;26.59;59.01;100130.72;5029093;28;20029;-80
2023/06/18 07:16:05;;;;;;;14.25;10.05;;;;;;;26.70;59.36;100140.88;5028615;28;20026;-79
2023/06/18 07:18:31;;;;;;;13.77;9.35;;;;;;;26.71;58.81;100141.72;5028826;28;20064;-80
2023/06/18 07:20:56;;;;;;;13.57;8.98;;;;;;;26.79;59.17;100150.47;5011541;28;20507;-86
2023/06/18 07:23:22;;;;;;;13.52;9.90;;;;;;;26.79;58.55;100144.09;5029940;28;20034;-82
2023/06/18 07:25:47;;;;;;;12.32;9.32;;;;;;;26.79;58.66;100150.47;5032401;28;20516;-88
2023/06/18 07:28:13;;;;;;;20.10;10.13;;;;;;;26.79;59.10;100144.94;5033119;28;20029;-85
2023/06/18 07:30:38;;;;;;;19.52;11.68;;;;;;;26.80;58.59;100146.66;5036709;28;20083;-85
2023/06/18 07:33:03;;;;;;;24.42;10.45;;;;;;;26.97;58.52;100160.56;5048476;28;20038;-83
2023/06/18 07:35:29;;;;;;;16.27;9.13;;;;;;;26.94;58.53;100161.88;5051445;28;20022;-91
2023/06/18 07:37:54;;;;;;;17.00;10.02;;;;;;;26.93;58.57;100156.63;5031527;28;20043;-85
2023/06/18 07:40:20;;;;;;;18.05;7.63;;;;;;;27.00;57.58;100158.13;5029895;28;20091;-87
2023/06/18 07:42:45;;;;;;;18.77;9.85;;;;;;;27.00;57.67;100163.66;5029795;28;20417;-83
2023/06/18 07:45:11;;;;;;;16.95;8.60;;;;;;;27.01;57.55;100156.22;5029507;28;20026;-93
2023/06/18 07:47:36;;;;;;;15.25;7.47;;;;;;;26.95;57.70;100132.34;5014109;28;20427;-89
2023/06/18 07:50:03;;;;;;;18.77;7.03;;;;;;;27.09;56.97;100155.03;5030039;28;20029;-91
2023/06/18 07:52:28;;;;;;;19.60;7.25;;;;;;;27.04;57.13;100133.66;5011803;28;20036;-86
2023/06/18 07:54:54;;;;;;;15.50;7.85;;;;;;;27.16;56.90;100163.97;5030160;28;20100;-85
2023/06/18 07:57:19;;;;;;;11.27;6.38;;;;;;;27.28;56.39;100153.75;5030681;28;20018;-90
2023/06/18 07:59:45;;;;;;;19.70;6.75;;;;;;;27.36;55.79;100150.63;5012568;28;20080;-91
2023/06/18 08:02:11;;;;;;;16.30;5.95;;;;;;;27.42;54.94;100149.63;5030649;28;20025;-88
2023/06/18 08:04:37;;;;;;;20.92;6.03;;;;;;;27.49;54.75;100158.66;5029057;28;20424;-85
2023/06/18 08:07:02;;;;;;;20.00;6.82;;;;;;;27.59;54.63;100156.06;5011374;28;20136;-89
2023/06/18 08:09:28;;;;;;;13.73;6.55;;;;;;;27.48;54.79;100126.56;5030078;28;20096;-89
2023/06/18 08:11:55;;;;;;;16.25;6.20;;;;;;;27.73;55.38;100157.44;5028879;28;20040;-87
2023/06/18 08:14:20;;;;;;;22.50;7.07;;;;;;;27.86;55.28;100161.81;5029224;28;20450;-87
2023/06/18 08:16:46;;;;;;;13.70;6.85;;;;;;;27.92;55.39;100158.88;5030441;28;20064;-87
2023/06/18 08:19:12;;;;;;;17.17;7.43;;;;;;;27.84;55.18;100139.97;5030382;28;20497;-86
2023/06/18 08:21:38;;;;;;;16.40;6.85;;;;;;;27.77;54.84;100149.47;5030642;28;20040;-86
2023/06/18 08:24:04;;;;;;;12.77;6.97;;;;;;;27.76;54.90;100137.59;5031381;28;20117;-87
2023/06/18 08:26:29;;;;;;;28.73;7.50;;;;;;;27.74;54.81;100147.22;5031645;28;20108;-86
2023/06/18 08:28:55;;;;;;;10.65;5.95;;;;;;;27.81;54.63;100170.84;5043585;28;20041;-89
2023/06/18 08:31:20;;;;;;;13.07;5.80;;;;;;;27.81;54.99;100172.78;5043748;28;20043;-79
2023/06/18 08:33:46;;;;;;;13.27;6.97;;;;;;;27.86;54.94;100176.47;5032473;28;20033;-85
2023/06/18 08:36:11;;;;;;;11.43;6.45;;;;;;;27.85;55.39;100155.47;5032568;28;20069;-83
2023/06/18 08:38:37;;;;;;;16.20;6.82;;;;;;;28.03;54.78;100177.34;5032379;28;20037;-84
2023/06/18 08:41:02;;;;;;;14.88;6.05;;;;;;;27.98;54.59;100159.84;5033990;28;20037;-84
2023/06/18 08:43:37;;;;;;;17.88;6.95;;;;;;;28.13;54.77;100164.81;5034501;28;20392;-86
2023/06/18 08:46:10;;;;;;;21.42;8.10;;;;;;;28.09;54.04;100151.50;5032215;28;20084;-86
2023/06/18 08:48:44;;;;;;;14.77;7.28;;;;;;;28.24;53.86;100170.28;5032105;28;20104;-85
2023/06/18 08:51:13;;;;;;;19.98;7.55;;;;;;;28.18;53.57;100143.63;5036472;28;20111;-82
2023/06/18 08:54:08;;;;;;;19.80;7.25;;;;;;;28.39;52.90;100169.66;5016695;28;20040;-84
2023/06/18 08:56:42;;;;;;;14.38;7.15;;;;;;;28.36;52.59;100164.66;5021032;28;20175;-84
2023/06/18 08:59:08;;;;;;;15.95;5.80;;;;;;;28.29;53.23;100156.50;5045680;28;20555;-83
2023/06/18 09:01:34;;;;;;;11.68;6.00;;;;;;;28.22;52.54;100143.97;5031688;28;20699;-76
2023/06/18 09:04:01;;;;;;;30.40;6.93;;;;;;;28.36;52.82;100162.72;5008695;28;20385;-77
2023/06/18 09:06:27;;;;;;;15.43;6.00;;;;;;;28.42;53.13;100155.34;5010806;28;20045;-79
2023/06/18 09:08:53;;;;;;;10.10;6.32;;;;;;;28.60;52.05;100146.75;4976603;28;20116;-78
2023/06/18 09:11:18;;;;;;;13.90;5.25;;;;;;;28.87;50.37;100169.88;5011413;28;20097;-77
2023/06/18 09:13:44;;;;;;;11.98;6.18;;;;;;;28.96;50.02;100176.66;5022305;28;20041;-77
2023/06/18 09:16:10;;;;;;;14.85;6.07;;;;;;;29.01;50.43;100160.13;5030561;28;20036;-78
2023/06/18 09:18:36;;;;;;;15.05;6.70;;;;;;;29.14;49.66;100170.00;5031958;28;20057;-80
2023/06/18 09:21:03;;;;;;;13.88;6.07;;;;;;;29.24;49.51;100158.22;4994034;28;20887;-79
2023/06/18 09:23:29;;;;;;;17.73;6.63;;;;;;;29.39;49.39;100175.00;5000820;28;20038;-82
2023/06/18 09:25:56;;;;;;;15.77;5.47;;;;;;;29.33;47.99;100165.81;4997068;28;20554;-85
2023/06/18 09:28:23;;;;;;;31.33;7.07;;;;;;;29.34;47.80;100172.19;4985591;28;20058;-86
2023/06/18 09:30:54;;;;;;;12.75;6.72;;;;;;;29.36;47.60;100168.06;4990821;28;20073;-80
2023/06/18 09:33:32;;;;;;;11.63;5.97;;;;;;;29.36;46.63;100158.91;4989143;28;20038;-82
2023/06/18 09:36:06;;;;;;;20.80;7.07;;;;;;;29.35;48.15;100147.00;4972965;28;20041;-82
2023/06/18 09:38:39;;;;;;;19.38;7.20;;;;;;;29.54;48.59;100164.13;4988782;28;20133;-83
2023/06/18 09:41:16;;;;;;;17.20;6.95;;;;;;;29.57;48.79;100145.03;4989381;28;20294;-80
2023/06/18 09:43:45;;;;;;;15.38;5.35;;;;;;;29.68;46.95;100160.69;4972546;28;20046;-80
2023/06/18 09:46:12;;;;;;;16.80;5.93;;;;;;;29.69;47.69;100144.91;4990264;28;20534;-82
2023/06/18 09:48:40;;;;;;;10.88;5.97;;;;;;;29.73;46.82;100146.03;4991443;28;20038;-78
2023/06/18 09:51:06;;;;;;;19.73;5.63;;;;;;;29.72;45.99;100138.00;5008807;28;20037;-81
2023/06/18 09:53:32;;;;;;;12.95;6.50;;;;;;;29.86;45.34;100145.66;5043450;28;20595;-77
2023/06/18 09:56:11;;;;;;;18.52;6.43;;;;;;;30.00;46.78;100137.75;5038859;28;20028;-77
2023/06/18 09:58:46;;;;;;;15.68;6.47;;;;;;;30.06;46.58;100131.94;5039355;28;20025;-80
2023/06/18 10:01:11;;;;;;;13.93;5.93;;;;;;;30.06;45.66;100120.84;5043072;28;20386;-83
2023/06/18 10:03:37;;;;;;;16.52;6.13;;;;;;;30.13;45.33;100118.69;5041445;28;20099;-82
2023/06/18 10:06:17;;;;;;;12.27;6.30;;;;;;;30.13;45.37;100127.03;5016812;28;20018;-86
2023/06/18 10:08:50;;;;;;;19.83;6.45;;;;;;;30.02;45.38;100111.41;5012990;28;20037;-78
2023/06/18 10:11:20;;;;;;;14.65;7.20;;;;;;;29.91;45.38;100112.41;5000590;28;20172;-81
2023/06/18 10:13:47;;;;;;;11.05;5.95;;;;;;;29.93;46.01;100110.22;5023804;28;20033;-83
2023/06/18 10:16:16;;;;;;;19.38;6.40;;;;;;;30.04;45.71;100106.44;5033585;28;20112;-85
2023/06/18 10:18:53;;;;;;;20.08;7.55;;;;;;;30.23;44.62;100099.38;5032030;28;20050;-84
2023/06/18 10:21:21;;;;;;;24.83;8.48;;;;;;;30.52;44.43;100093.50;5032908;28;20040;-87
2023/06/18 10:23:53;;;;;;;24.65;6.85;;;;;;;30.63;44.85;100093.28;5022488;28;20355;-84
2023/06/18 10:26:20;;;;;;;14.98;5.97;;;;;;;30.66;44.65;100097.44;5037467;28;20029;-85
2023/06/18 10:28:46;;;;;;;15.65;6.00;;;;;;;30.43;44.81;100070.94;5011977;28;20460;-84
2023/06/18 10:31:12;;;;;;;13.30;6.43;;;;;;;30.43;43.51;100095.91;5030442;28;20510;-83
2023/06/18 10:33:38;;;;;;;16.92;5.97;;;;;;;30.28;44.19;100093.00;5030192;28;20025;-85
2023/06/18 10:36:04;;;;;;;15.90;6.25;;;;;;;30.18;44.62;100090.19;5012012;28;20025;-84
2023/06/18 10:38:30;;;;;;;16.63;6.35;;;;;;;30.10;44.26;100096.19;5030054;28;20049;-83
2023/06/18 10:41:10;;;;;;;16.08;6.55;;;;;;;30.01;44.93;100098.63;5030000;28;20080;-84
2023/06/18 10:43:42;;;;;;;11.60;6.95;;;;;;;29.89;45.04;100099.91;5029391;28;20396;-85
2023/06/18 10:46:11;;;;;;;17.13;6.13;;;;;;;29.80;45.36;100085.66;5029713;28;20379;-84
2023/06/18 10:48:37;;;;;;;11.65;6.88;;;;;;;29.92;45.01;100099.38;5029611;28;20762;-84
2023/06/18 10:51:17;;;;;;;14.30;6.35;;;;;;;29.77;45.75;100113.91;5030683;28;20032;-84
2023/06/18 10:53:46;;;;;;;15.43;6.78;;;;;;;29.65;45.94;100116.03;5034949;28;20036;-89
2023/06/18 10:56:15;;;;;;;17.88;7.45;;;;;;;29.63;45.27;100118.22;5032903;28;20033;-87
2023/06/18 10:58:42;;;;;;;12.32;6.30;;;;;;;29.72;44.95;100122.19;4993956;28;20038;-89
2023/06/18 11:01:24;;;;;;;15.32;6.75;;;;;;;29.63;45.13;100083.00;4992402;28;20105;-88
2023/06/18 11:03:59;;;;;;;;;;;;;;;29.85;46.04;100119.00;4991489;28;20073;-90
2023/06/18 11:06:29;;;;;;;12.82;6.85;;;;;;;29.76;46.31;100112.22;4957089;28;19977;-87
2023/06/18 11:08:55;;;;;;;14.90;5.78;;;;;;;29.65;46.62;100096.63;4973576;28;20114;-89
2023/06/18 11:11:24;;;;;;;18.80;7.22;;;;;;;29.68;46.42;100101.63;4957173;28;20407;-89
2023/06/18 11:13:55;;;;;;;15.65;6.28;;;;;;;29.70;46.28;100135.47;4973127;28;20070;-89